Time;durP1;ratioP1;P1;durP2;ratioP2;P2;SDS_P1;SDS_P2;PMS_P1;PMS_P2;Temp;Humidity;BMP_temperature;BMP_pressure;BME280_temperature;BME280_humidity;BME280_pressure;Samples;Min_cycle;Max_cycle;Signal;HPM_P1;HPM_P2
2021/11/27 00:01:43;;;;;;;5.10;2.33;;;;;;;;;;4974780;28;20045;-59
2021/11/27 00:04:10;;;;;;;3.23;2.20;;;;;;;;;;4974834;28;20138;-59
2021/11/27 00:06:37;;;;;;;5.17;2.50;;;;;;;;;;4974605;28;20061;-59
2021/11/27 00:09:05;;;;;;;4.30;2.07;;;;;;;;;;4968994;28;20026;-59
2021/11/27 00:11:32;;;;;;;4.83;2.10;;;;;;;;;;4968776;28;20098;-59
2021/11/27 00:13:58;;;;;;;2.87;1.90;;;;;;;;;;4969309;28;20023;-59
2021/11/27 00:16:25;;;;;;;4.67;2.20;;;;;;;;;;4969078;28;20034;-59
2021/11/27 00:18:52;;;;;;;6.83;2.50;;;;;;;;;;4973135;28;20031;-59
2021/11/27 00:21:20;;;;;;;4.20;2.50;;;;;;;;;;4974332;28;20035;-59
2021/11/27 00:23:48;;;;;;;3.83;2.30;;;;;;;;;;4974514;28;20031;-59
2021/11/27 00:26:16;;;;;;;4.40;2.30;;;;;;;;;;4974243;28;20474;-59
2021/11/27 00:28:43;;;;;;;5.13;2.30;;;;;;;;;;4974383;28;20031;-59
2021/11/27 00:31:11;;;;;;;4.60;2.40;;;;;;;;;;4969786;28;20026;-59
2021/11/27 00:33:38;;;;;;;5.53;2.87;;;;;;;;;;4968658;28;20027;-59
2021/11/27 00:36:05;;;;;;;4.30;2.40;;;;;;;;;;4968671;28;20485;-59
2021/11/27 00:38:32;;;;;;;3.47;2.30;;;;;;;;;;4968437;28;20101;-59
2021/11/27 00:40:59;;;;;;;7.10;3.00;;;;;;;;;;4972184;28;20042;-59
2021/11/27 00:43:26;;;;;;;13.13;2.77;;;;;;;;;;4973847;28;20058;-59
2021/11/27 00:45:53;;;;;;;4.97;3.40;;;;;;;;;;4974327;28;20027;-59
2021/11/27 00:48:21;;;;;;;8.37;2.80;;;;;;;;;;4973938;28;20031;-59
2021/11/27 00:50:49;;;;;;;7.20;3.57;;;;;;;;;;4973933;28;20035;-59
2021/11/27 00:53:16;;;;;;;3.27;2.13;;;;;;;;;;4969129;28;20027;-59
2021/11/27 00:55:43;;;;;;;3.63;2.20;;;;;;;;;;4968490;28;20027;-59
2021/11/27 00:58:10;;;;;;;2.90;1.63;;;;;;;;;;4968448;28;20081;-59
2021/11/27 01:00:43;;;;;;;2.77;2.03;;;;;;;;;;4968409;28;20043;-59
2021/11/27 01:03:11;;;;;;;3.37;2.20;;;;;;;;;;4972238;28;20030;-58
2021/11/27 01:05:38;;;;;;;4.00;2.50;;;;;;;;;;4973365;28;20073;-59
2021/11/27 01:08:05;;;;;;;3.00;2.30;;;;;;;;;;4973446;28;20142;-59
2021/11/27 01:10:34;;;;;;;8.50;2.50;;;;;;;;;;4973502;28;20023;-59
2021/11/27 01:13:00;;;;;;;3.10;1.90;;;;;;;;;;4973069;28;20030;-58
2021/11/27 01:15:29;;;;;;;4.10;2.60;;;;;;;;;;4969504;28;20031;-59
2021/11/27 01:17:56;;;;;;;4.57;2.10;;;;;;;;;;4968279;28;20101;-58
2021/11/27 01:20:25;;;;;;;8.37;2.37;;;;;;;;;;4968433;28;20496;-59
2021/11/27 01:22:52;;;;;;;4.07;2.17;;;;;;;;;;4964496;28;20031;-59
2021/11/27 01:25:19;;;;;;;3.23;2.10;;;;;;;;;;4967527;28;20073;-60
2021/11/27 01:27:46;;;;;;;2.60;1.90;;;;;;;;;;4968241;28;20034;-59
2021/11/27 01:30:13;;;;;;;5.73;2.13;;;;;;;;;;4969670;28;20037;-59
2021/11/27 01:32:40;;;;;;;3.50;2.50;;;;;;;;;;4970692;28;20414;-59
2021/11/27 01:35:07;;;;;;;6.13;2.63;;;;;;;;;;4970432;28;20082;-59
2021/11/27 01:37:35;;;;;;;4.77;3.20;;;;;;;;;;4964230;28;20041;-59
2021/11/27 01:40:03;;;;;;;6.17;3.50;;;;;;;;;;4965740;28;20050;-60
2021/11/27 01:42:30;;;;;;;5.83;3.17;;;;;;;;;;4963732;28;20486;-59
2021/11/27 01:44:56;;;;;;;5.80;3.63;;;;;;;;;;4944276;28;20360;-59
2021/11/27 01:47:23;;;;;;;6.03;3.80;;;;;;;;;;4970525;28;20031;-60
2021/11/27 01:49:50;;;;;;;7.60;3.77;;;;;;;;;;4970317;28;20062;-60
2021/11/27 01:52:17;;;;;;;5.93;4.03;;;;;;;;;;4970577;28;20035;-59
2021/11/27 01:54:44;;;;;;;6.37;4.10;;;;;;;;;;4961895;28;20031;-59
2021/11/27 01:57:10;;;;;;;5.63;4.37;;;;;;;;;;4970362;28;20158;-59
2021/11/27 01:59:38;;;;;;;10.40;3.80;;;;;;;;;;4966735;28;20038;-59
2021/11/27 02:02:06;;;;;;;7.97;4.33;;;;;;;;;;4962673;28;20027;-59
2021/11/27 02:04:34;;;;;;;6.17;4.73;;;;;;;;;;4962005;28;20097;-60
2021/11/27 02:07:01;;;;;;;12.60;4.10;;;;;;;;;;4966210;28;20494;-59
2021/11/27 02:09:30;;;;;;;5.80;4.60;;;;;;;;;;4966584;28;20105;-59
2021/11/27 02:11:59;;;;;;;8.43;4.83;;;;;;;;;;4965197;28;20035;-59
2021/11/27 02:14:26;;;;;;;9.83;5.07;;;;;;;;;;4969660;28;20035;-59
2021/11/27 02:16:53;;;;;;;7.63;4.57;;;;;;;;;;4960783;28;20031;-59
2021/11/27 02:19:21;;;;;;;10.23;5.60;;;;;;;;;;4968720;28;20035;-59
2021/11/27 02:21:48;;;;;;;11.87;4.90;;;;;;;;;;4953951;28;20030;-59
2021/11/27 02:24:16;;;;;;;9.83;5.13;;;;;;;;;;4962053;28;20078;-59
2021/11/27 02:26:44;;;;;;;9.23;4.90;;;;;;;;;;4960979;28;20081;-59
2021/11/27 02:29:12;;;;;;;9.57;4.90;;;;;;;;;;4966892;28;20090;-59
2021/11/27 02:31:39;;;;;;;11.97;5.37;;;;;;;;;;4965499;28;20195;-60
2021/11/27 02:34:07;;;;;;;7.37;5.10;;;;;;;;;;4968045;28;20061;-58
2021/11/27 02:36:34;;;;;;;8.43;4.47;;;;;;;;;;4964128;28;20549;-59
2021/11/27 02:39:02;;;;;;;8.37;5.07;;;;;;;;;;4972336;28;20390;-59
2021/11/27 02:41:28;;;;;;;7.87;4.73;;;;;;;;;;4972018;28;20019;-58
2021/11/27 02:43:55;;;;;;;7.70;5.80;;;;;;;;;;4972882;28;20130;-59
2021/11/27 02:46:22;;;;;;;9.03;5.30;;;;;;;;;;4970805;28;20033;-59
2021/11/27 02:48:49;;;;;;;10.00;5.80;;;;;;;;;;4969524;28;20034;-59
2021/11/27 02:51:16;;;;;;;9.17;4.93;;;;;;;;;;4968734;28;20452;-58
2021/11/27 02:53:43;;;;;;;7.80;5.53;;;;;;;;;;4970925;28;20039;-58
2021/11/27 02:56:10;;;;;;;7.77;5.87;;;;;;;;;;4961417;28;20456;-58
2021/11/27 02:58:36;;;;;;;13.00;5.70;;;;;;;;;;4972822;28;20046;-58
2021/11/27 03:01:04;;;;;;;11.83;5.17;;;;;;;;;;4966440;28;20039;-58
2021/11/27 03:03:31;;;;;;;8.87;5.63;;;;;;;;;;4968911;28;20082;-59
2021/11/27 03:05:58;;;;;;;5.90;4.80;;;;;;;;;;4973692;28;20035;-58
2021/11/27 03:08:25;;;;;;;8.57;5.53;;;;;;;;;;4970479;28;20031;-58
2021/11/27 03:10:52;;;;;;;9.37;5.57;;;;;;;;;;4970623;28;20031;-58
2021/11/27 03:13:25;;;;;;;5.77;4.00;;;;;;;;;;4967498;28;20486;-58
2021/11/27 03:15:52;;;;;;;6.47;4.43;;;;;;;;;;4966765;28;20454;-58
2021/11/27 03:18:18;;;;;;;6.90;4.50;;;;;;;;;;4974629;28;20429;-58
2021/11/27 03:20:46;;;;;;;8.63;5.07;;;;;;;;;;4971873;28;20371;-58
2021/11/27 03:23:13;;;;;;;8.80;5.47;;;;;;;;;;4973749;28;20182;-58
2021/11/27 03:25:41;;;;;;;8.30;5.77;;;;;;;;;;4974847;28;20433;-58
2021/11/27 03:28:08;;;;;;;8.53;5.57;;;;;;;;;;4973734;28;20031;-58
2021/11/27 03:30:34;;;;;;;7.57;5.60;;;;;;;;;;4969785;28;20031;-58
2021/11/27 03:33:01;;;;;;;7.17;3.93;;;;;;;;;;4969525;28;20379;-58
2021/11/27 03:35:28;;;;;;;7.07;6.10;;;;;;;;;;4969831;28;20553;-58
2021/11/27 03:37:56;;;;;;;8.93;5.80;;;;;;;;;;4951613;29;20990;-58
2021/11/27 03:40:23;;;;;;;12.00;7.17;;;;;;;;;;4956178;29;20037;-58
2021/11/27 03:42:49;;;;;;;8.40;5.97;;;;;;;;;;4967687;28;20441;-58
2021/11/27 03:45:19;;;;;;;10.10;5.70;;;;;;;;;;4975144;28;20482;-58
2021/11/27 03:48:00;;;;;;;8.57;5.83;;;;;;;;;;4974524;28;20035;-58
2021/11/27 03:50:32;;;;;;;11.33;6.43;;;;;;;;;;4971159;28;20102;-58
2021/11/27 03:52:58;;;;;;;7.87;5.30;;;;;;;;;;4968648;28;20370;-58
2021/11/27 03:55:25;;;;;;;11.50;6.00;;;;;;;;;;4969511;28;20400;-58
2021/11/27 03:57:52;;;;;;;7.40;5.60;;;;;;;;;;4969324;28;20039;-58
2021/11/27 04:00:19;;;;;;;7.20;4.97;;;;;;;;;;4970672;28;20062;-58
2021/11/27 04:02:46;;;;;;;6.40;4.47;;;;;;;;;;4974503;28;20015;-58
2021/11/27 04:05:13;;;;;;;8.33;3.63;;;;;;;;;;4975126;28;20027;-58
2021/11/27 04:07:40;;;;;;;7.70;5.27;;;;;;;;;;4974708;28;20030;-58
2021/11/27 04:10:07;;;;;;;7.20;4.80;;;;;;;;;;4974926;28;20098;-58
2021/11/27 04:12:34;;;;;;;11.07;6.20;;;;;;;;;;4973160;28;20458;-58
2021/11/27 04:15:02;;;;;;;6.63;4.67;;;;;;;;;;4968928;28;20031;-58
2021/11/27 04:17:30;;;;;;;8.43;5.70;;;;;;;;;;4968515;28;20041;-58
2021/11/27 04:19:56;;;;;;;8.40;5.00;;;;;;;;;;4968715;28;20038;-59
2021/11/27 04:22:23;;;;;;;7.43;5.63;;;;;;;;;;4969886;28;20030;-58
2021/11/27 04:24:50;;;;;;;10.23;5.87;;;;;;;;;;4974339;28;20073;-57
2021/11/27 04:27:17;;;;;;;7.57;5.80;;;;;;;;;;4974858;28;20027;-58
2021/11/27 04:29:44;;;;;;;8.47;5.17;;;;;;;;;;4974372;28;20177;-57
2021/11/27 04:32:11;;;;;;;6.30;3.97;;;;;;;;;;4974013;28;20042;-57
2021/11/27 04:34:38;;;;;;;8.73;4.47;;;;;;;;;;4972896;28;20035;-58
2021/11/27 04:37:09;;;;;;;13.10;4.90;;;;;;;;;;4968330;28;20181;-58
2021/11/27 04:39:38;;;;;;;6.87;4.70;;;;;;;;;;4968005;28;20529;-58
2021/11/27 04:42:04;;;;;;;7.83;5.37;;;;;;;;;;4968277;28;20030;-58
2021/11/27 04:44:31;;;;;;;21.17;6.57;;;;;;;;;;4969294;28;20508;-58
2021/11/27 04:46:58;;;;;;;9.20;5.53;;;;;;;;;;4973547;28;20117;-57
2021/11/27 04:49:25;;;;;;;7.63;4.47;;;;;;;;;;4974387;28;20026;-57
2021/11/27 04:51:51;;;;;;;9.23;5.13;;;;;;;;;;4973862;28;20031;-57
2021/11/27 04:54:18;;;;;;;6.03;4.13;;;;;;;;;;4973233;28;20035;-57
2021/11/27 04:56:45;;;;;;;9.03;5.47;;;;;;;;;;4973381;28;20437;-57
2021/11/27 04:59:12;;;;;;;8.53;5.63;;;;;;;;;;4968408;28;20117;-57
2021/11/27 05:01:39;;;;;;;10.53;5.90;;;;;;;;;;4968719;28;20037;-58
2021/11/27 05:04:05;;;;;;;10.13;5.30;;;;;;;;;;4967782;28;20114;-58
2021/11/27 05:06:32;;;;;;;7.50;5.30;;;;;;;;;;4968387;28;20111;-57
2021/11/27 05:08:59;;;;;;;6.80;4.87;;;;;;;;;;4973627;28;20427;-58
2021/11/27 05:11:25;;;;;;;13.80;5.87;;;;;;;;;;4973690;28;20074;-57
2021/11/27 05:13:52;;;;;;;7.57;4.57;;;;;;;;;;4973353;28;20095;-58
2021/11/27 05:16:19;;;;;;;9.10;5.73;;;;;;;;;;4973774;28;20062;-59
2021/11/27 05:18:46;;;;;;;10.17;4.13;;;;;;;;;;4973515;28;20268;-57
2021/11/27 05:21:12;;;;;;;7.67;4.30;;;;;;;;;;4967055;28;20034;-59
2021/11/27 05:23:39;;;;;;;9.87;5.43;;;;;;;;;;4964524;28;20042;-58
2021/11/27 05:26:06;;;;;;;8.17;5.37;;;;;;;;;;4967927;28;20050;-57
2021/11/27 05:28:33;;;;;;;6.07;4.67;;;;;;;;;;4966793;28;20271;-58
2021/11/27 05:31:02;;;;;;;9.63;6.00;;;;;;;;;;4972458;28;20755;-57
2021/11/27 05:36:12;;;;;;;33.83;5.80;;;;;;;;;;4973546;28;20273;-56
2021/11/27 05:38:39;;;;;;;7.40;4.00;;;;;;;;;;4956059;28;20623;-57
2021/11/27 05:41:06;;;;;;;8.20;5.60;;;;;;;;;;4972941;28;20287;-57
2021/11/27 05:43:34;;;;;;;11.50;5.23;;;;;;;;;;4967840;28;20261;-57
2021/11/27 05:46:01;;;;;;;7.87;4.77;;;;;;;;;;4968057;28;20316;-57
2021/11/27 05:48:27;;;;;;;8.43;4.50;;;;;;;;;;4967971;28;20257;-57
2021/11/27 05:50:54;;;;;;;11.13;5.53;;;;;;;;;;4959463;28;20620;-56
2021/11/27 05:53:21;;;;;;;11.50;5.60;;;;;;;;;;4953911;28;20368;-56
2021/11/27 05:55:48;;;;;;;7.73;4.23;;;;;;;;;;4953875;28;20264;-56
2021/11/27 05:58:16;;;;;;;9.93;4.53;;;;;;;;;;4954152;29;20300;-57
2021/11/27 06:00:43;;;;;;;9.83;5.60;;;;;;;;;;4953999;28;20629;-57
2021/11/27 06:03:10;;;;;;;9.23;4.87;;;;;;;;;;4953664;29;20269;-57
2021/11/27 06:05:37;;;;;;;7.63;4.30;;;;;;;;;;4948476;29;20281;-57
2021/11/27 06:08:04;;;;;;;7.57;4.50;;;;;;;;;;4949036;28;20282;-56
2021/11/27 06:10:31;;;;;;;9.10;4.07;;;;;;;;;;4948598;29;20257;-57
2021/11/27 06:12:57;;;;;;;6.57;3.73;;;;;;;;;;4948457;28;20273;-57
2021/11/27 06:15:25;;;;;;;7.53;3.83;;;;;;;;;;4962265;28;20260;-57
2021/11/27 06:17:53;;;;;;;7.57;3.90;;;;;;;;;;4976882;28;20620;-56
2021/11/27 06:20:21;;;;;;;7.30;3.50;;;;;;;;;;4976367;28;20292;-57
2021/11/27 06:22:47;;;;;;;6.13;3.80;;;;;;;;;;4964643;28;20934;-57
2021/11/27 06:25:14;;;;;;;5.23;3.70;;;;;;;;;;4966065;28;20700;-56
2021/11/27 06:27:41;;;;;;;6.20;4.17;;;;;;;;;;4966921;28;20277;-57
2021/11/27 06:30:09;;;;;;;5.40;4.10;;;;;;;;;;4952157;28;20265;-58
2021/11/27 06:32:35;;;;;;;6.40;3.90;;;;;;;;;;4966221;28;20273;-57
2021/11/27 06:35:02;;;;;;;7.00;4.47;;;;;;;;;;4951544;29;20261;-57
2021/11/27 06:37:29;;;;;;;4.87;3.43;;;;;;;;;;4957692;28;20277;-56
2021/11/27 06:39:59;;;;;;;5.47;3.27;;;;;;;;;;4976619;28;20296;-57
2021/11/27 06:42:27;;;;;;;7.57;3.80;;;;;;;;;;4976152;28;20323;-56
2021/11/27 06:44:54;;;;;;;6.63;3.90;;;;;;;;;;4976279;28;20652;-56
2021/11/27 06:47:21;;;;;;;5.67;3.80;;;;;;;;;;4974220;28;20261;-57
2021/11/27 06:49:49;;;;;;;5.83;3.10;;;;;;;;;;4971337;28;20253;-57
2021/11/27 06:52:16;;;;;;;5.50;3.77;;;;;;;;;;4970989;28;21279;-57
2021/11/27 06:54:43;;;;;;;5.43;3.67;;;;;;;;;;4970459;28;20283;-56
2021/11/27 06:57:10;;;;;;;4.77;3.53;;;;;;;;;;4971038;28;20256;-57
2021/11/27 06:59:38;;;;;;;5.87;3.67;;;;;;;;;;4974733;28;20295;-56
2021/11/27 07:02:05;;;;;;;5.47;3.50;;;;;;;;;;4968500;28;20740;-56
2021/11/27 07:04:31;;;;;;;4.93;3.37;;;;;;;;;;4956291;29;20348;-57
2021/11/27 07:06:59;;;;;;;5.57;3.33;;;;;;;;;;4967334;28;20272;-56
2021/11/27 07:09:26;;;;;;;6.70;3.53;;;;;;;;;;4960817;28;20344;-56
2021/11/27 07:11:53;;;;;;;3.90;2.60;;;;;;;;;;4952280;29;20393;-56
2021/11/27 07:14:19;;;;;;;4.47;3.13;;;;;;;;;;4951506;29;20273;-57
2021/11/27 07:16:46;;;;;;;4.40;2.90;;;;;;;;;;4951390;28;20751;-56
2021/11/27 07:19:13;;;;;;;5.07;3.10;;;;;;;;;;4951115;29;20352;-54
2021/11/27 07:21:40;;;;;;;4.77;2.87;;;;;;;;;;4954311;28;20309;-54
2021/11/27 07:24:06;;;;;;;3.57;2.30;;;;;;;;;;4956538;29;20336;-54
2021/11/27 07:26:33;;;;;;;4.43;3.33;;;;;;;;;;4956476;28;20266;-54
2021/11/27 07:29:00;;;;;;;6.03;3.03;;;;;;;;;;4956357;28;20277;-54
2021/11/27 07:31:27;;;;;;;3.73;2.30;;;;;;;;;;4956058;28;20270;-54
2021/11/27 07:33:54;;;;;;;4.50;3.20;;;;;;;;;;4960605;28;20276;-54
2021/11/27 07:36:21;;;;;;;3.83;2.43;;;;;;;;;;4964013;28;20272;-54
2021/11/27 07:38:47;;;;;;;5.63;3.50;;;;;;;;;;4950647;28;20273;-54
2021/11/27 07:41:14;;;;;;;6.83;3.50;;;;;;;;;;4955442;28;20303;-54
2021/11/27 07:43:41;;;;;;;5.23;3.07;;;;;;;;;;4972894;28;20276;-54
2021/11/27 07:46:08;;;;;;;4.63;2.40;;;;;;;;;;4970744;28;20313;-54
2021/11/27 07:48:35;;;;;;;5.20;3.57;;;;;;;;;;4956064;29;20265;-54
2021/11/27 07:51:03;;;;;;;5.30;2.90;;;;;;;;;;4956044;28;20277;-54
2021/11/27 07:53:30;;;;;;;6.07;3.50;;;;;;;;;;4955777;29;20261;-54
2021/11/27 07:55:56;;;;;;;3.83;2.77;;;;;;;;;;4952637;28;20265;-54
2021/11/27 07:58:23;;;;;;;4.27;3.00;;;;;;;;;;4950520;29;20265;-54
2021/11/27 08:00:50;;;;;;;7.10;2.90;;;;;;;;;;4951537;28;21070;-54
2021/11/27 08:03:17;;;;;;;3.27;2.13;;;;;;;;;;4950264;28;20270;-55
2021/11/27 08:05:43;;;;;;;3.70;2.27;;;;;;;;;;4952792;28;20771;-54
2021/11/27 08:08:10;;;;;;;4.43;2.63;;;;;;;;;;4955319;29;20261;-54
2021/11/27 08:10:37;;;;;;;4.97;2.07;;;;;;;;;;4955681;28;20288;-54
2021/11/27 08:13:04;;;;;;;5.00;1.97;;;;;;;;;;4955565;29;20257;-54
2021/11/27 08:15:30;;;;;;;5.17;2.43;;;;;;;;;;4955579;29;20260;-54
2021/11/27 08:17:57;;;;;;;3.23;2.00;;;;;;;;;;4954933;28;20280;-54
2021/11/27 08:20:24;;;;;;;5.17;2.50;;;;;;;;;;4957179;28;20362;-54
2021/11/27 08:22:51;;;;;;;3.07;2.13;;;;;;;;;;4968908;28;20879;-54
2021/11/27 08:25:17;;;;;;;2.93;1.80;;;;;;;;;;4969360;28;20336;-54
2021/11/27 08:27:44;;;;;;;4.13;2.00;;;;;;;;;;4970983;28;20388;-54
2021/11/27 08:30:11;;;;;;;3.60;2.10;;;;;;;;;;4974600;28;20839;-54
2021/11/27 08:32:39;;;;;;;3.97;2.50;;;;;;;;;;4973883;28;20260;-54
2021/11/27 08:35:06;;;;;;;3.73;2.47;;;;;;;;;;4974361;28;20272;-54
2021/11/27 08:37:33;;;;;;;3.20;2.07;;;;;;;;;;4974359;28;20253;-54
2021/11/27 08:40:01;;;;;;;10.53;2.80;;;;;;;;;;4971075;28;20673;-54
2021/11/27 08:42:27;;;;;;;3.30;2.10;;;;;;;;;;4968637;28;20280;-54
2021/11/27 08:44:54;;;;;;;4.63;2.70;;;;;;;;;;4968505;28;20728;-54
2021/11/27 08:47:22;;;;;;;6.20;2.00;;;;;;;;;;4949489;29;20274;-54
2021/11/27 08:49:49;;;;;;;5.80;1.97;;;;;;;;;;4951216;29;20253;-54
2021/11/27 08:52:16;;;;;;;4.47;2.23;;;;;;;;;;4967762;28;20281;-54
2021/11/27 08:54:43;;;;;;;4.77;2.90;;;;;;;;;;4973604;28;20290;-54
2021/11/27 08:57:09;;;;;;;3.10;2.03;;;;;;;;;;4961316;28;20276;-54
2021/11/27 08:59:36;;;;;;;3.13;1.90;;;;;;;;;;4954690;28;20293;-54
2021/11/27 09:02:04;;;;;;;3.57;2.23;;;;;;;;;;4965991;28;20331;-54
2021/11/27 09:04:31;;;;;;;4.50;2.83;;;;;;;;;;4961728;28;20269;-53
2021/11/27 09:06:58;;;;;;;3.73;2.20;;;;;;;;;;4949331;28;20277;-54
2021/11/27 09:09:25;;;;;;;2.87;1.97;;;;;;;;;;4948920;29;20250;-54
2021/11/27 09:11:51;;;;;;;3.83;2.00;;;;;;;;;;4950361;28;20316;-54
2021/11/27 09:14:19;;;;;;;3.60;2.40;;;;;;;;;;4954444;29;20260;-54
2021/11/27 09:16:48;;;;;;;4.50;2.70;;;;;;;;;;4968685;28;20324;-54
2021/11/27 09:19:15;;;;;;;3.53;2.30;;;;;;;;;;4973597;28;20823;-53
2021/11/27 09:21:42;;;;;;;3.03;1.90;;;;;;;;;;4973047;28;20272;-54
2021/11/27 09:24:09;;;;;;;4.87;2.33;;;;;;;;;;4971668;28;20673;-54
2021/11/27 09:26:37;;;;;;;3.30;2.20;;;;;;;;;;4967821;28;20277;-54
2021/11/27 09:29:07;;;;;;;3.47;2.20;;;;;;;;;;4968179;28;20265;-54
2021/11/27 09:31:43;;;;;;;3.90;2.47;;;;;;;;;;4960804;28;20270;-54
2021/11/27 09:34:11;;;;;;;3.53;2.40;;;;;;;;;;4956156;28;20339;-54
2021/11/27 09:36:38;;;;;;;4.30;2.73;;;;;;;;;;4972758;28;20363;-54
2021/11/27 09:39:06;;;;;;;25.83;3.73;;;;;;;;;;4973498;28;20740;-54
2021/11/27 09:41:34;;;;;;;5.33;3.20;;;;;;;;;;4973110;28;20272;-54
2021/11/27 09:44:05;;;;;;;4.90;3.33;;;;;;;;;;4971713;28;20273;-54
2021/11/27 09:46:33;;;;;;;5.10;3.07;;;;;;;;;;4971189;28;20269;-54
2021/11/27 09:49:01;;;;;;;4.73;3.00;;;;;;;;;;4968088;28;20260;-54
2021/11/27 09:51:29;;;;;;;4.10;2.83;;;;;;;;;;4963784;28;20270;-54
2021/11/27 09:53:57;;;;;;;4.17;2.60;;;;;;;;;;4953111;29;20657;-54
2021/11/27 09:56:24;;;;;;;4.97;2.73;;;;;;;;;;4955268;28;20693;-54
2021/11/27 09:58:52;;;;;;;4.93;3.03;;;;;;;;;;4958204;28;20356;-54
2021/11/27 10:01:19;;;;;;;5.03;2.60;;;;;;;;;;4958244;28;20305;-54
2021/11/27 10:04:04;;;;;;;6.10;2.80;;;;;;;;;;4974506;28;20280;-54
2021/11/27 10:06:33;;;;;;;3.25;2.05;;;;;;;;;;4958002;29;20312;-54
2021/11/27 10:09:00;;;;;;;4.70;2.90;;;;;;;;;;4955220;28;20058;-54
2021/11/27 10:11:27;;;;;;;4.87;2.63;;;;;;;;;;4952500;29;20266;-54
2021/11/27 10:13:54;;;;;;;3.67;2.33;;;;;;;;;;4952267;28;20424;-54
2021/11/27 10:16:20;;;;;;;6.10;2.43;;;;;;;;;;4966951;28;20264;-54
2021/11/27 10:19:06;;;;;;;4.23;2.50;;;;;;;;;;4973519;28;20814;-54
2021/11/27 10:21:33;;;;;;;4.55;2.47;;;;;;;;;;4976650;28;20271;-55
2021/11/27 10:24:00;;;;;;;4.27;2.47;;;;;;;;;;4976476;28;20035;-54
2021/11/27 10:26:32;;;;;;;4.23;2.33;;;;;;;;;;4976555;28;20729;-54
2021/11/27 10:29:17;;;;;;;4.23;2.37;;;;;;;;;;4976724;28;20275;-54
2021/11/27 10:31:45;;;;;;;5.90;2.35;;;;;;;;;;4972274;28;20261;-54
2021/11/27 10:34:22;;;;;;;3.37;2.20;;;;;;;;;;4952011;28;20046;-54
2021/11/27 10:36:49;;;;;;;3.60;1.80;;;;;;;;;;4951754;28;20278;-54
2021/11/27 10:39:16;;;;;;;3.10;2.03;;;;;;;;;;4951882;29;20276;-54
2021/11/27 10:41:56;;;;;;;3.80;2.20;;;;;;;;;;4955311;29;20613;-54
2021/11/27 10:44:36;;;;;;;3.87;2.17;;;;;;;;;;4957395;29;20262;-54
2021/11/27 10:47:09;;;;;;;4.03;2.30;;;;;;;;;;4957321;29;20289;-54
2021/11/27 10:49:37;;;;;;;3.67;2.03;;;;;;;;;;4957087;29;20262;-54
2021/11/27 10:52:04;;;;;;;2.90;1.67;;;;;;;;;;4968839;28;20268;-54
2021/11/27 10:54:46;;;;;;;3.10;1.70;;;;;;;;;;4971313;28;20279;-54
2021/11/27 10:57:35;;;;;;;2.57;1.70;;;;;;;;;;4970461;28;20269;-54
2021/11/27 11:00:07;;;;;;;5.20;1.87;;;;;;;;;;4961072;28;20300;-54
2021/11/27 11:02:35;;;;;;;4.00;2.07;;;;;;;;;;4957868;28;20299;-54
2021/11/27 11:05:03;;;;;;;4.57;1.83;;;;;;;;;;4963785;28;20324;-54
2021/11/27 11:07:30;;;;;;;2.73;1.70;;;;;;;;;;4957005;29;20261;-54
2021/11/27 11:10:08;;;;;;;3.60;1.73;;;;;;;;;;4956805;29;20281;-54
2021/11/27 11:12:35;;;;;;;2.40;1.50;;;;;;;;;;4956585;28;20273;-53
2021/11/27 11:15:11;;;;;;;3.20;1.40;;;;;;;;;;4955367;29;20269;-53
2021/11/27 11:17:38;;;;;;;2.40;1.50;;;;;;;;;;4951001;28;20768;-54
2021/11/27 11:20:16;;;;;;;6.10;2.50;;;;;;;;;;4951227;29;20765;-54
2021/11/27 11:23:12;;;;;;;6.17;2.97;;;;;;;;;;4951098;28;20273;-54
2021/11/27 11:25:52;;;;;;;6.28;2.35;;;;;;;;;;4937057;28;20265;-54
2021/11/27 11:28:19;;;;;;;3.33;1.80;;;;;;;;;;4956467;29;20031;-54
2021/11/27 11:30:47;;;;;;;3.07;1.83;;;;;;;;;;4956360;28;20292;-54
2021/11/27 11:33:16;;;;;;;3.23;1.60;;;;;;;;;;4970638;28;20279;-54
2021/11/27 11:35:43;;;;;;;5.47;2.73;;;;;;;;;;4973732;28;20759;-53
2021/11/27 11:38:11;;;;;;;10.27;4.63;;;;;;;;;;4952933;28;20282;-54
2021/11/27 11:40:39;;;;;;;6.97;3.50;;;;;;;;;;4950582;28;20296;-54
2021/11/27 11:43:06;;;;;;;4.30;2.50;;;;;;;;;;4950643;29;20265;-54
2021/11/27 11:45:34;;;;;;;6.37;3.57;;;;;;;;;;4950896;29;20249;-54
2021/11/27 11:48:02;;;;;;;8.17;3.67;;;;;;;;;;4972701;28;20790;-54
2021/11/27 11:50:29;;;;;;;8.47;3.40;;;;;;;;;;4975087;28;20253;-54
2021/11/27 11:53:17;;;;;;;8.17;4.60;;;;;;;;;;4975016;28;20268;-54
2021/11/27 11:56:00;;;;;;;7.07;3.60;;;;;;;;;;4974832;28;20280;-54
2021/11/27 11:58:33;;;;;;;6.20;3.10;;;;;;;;;;4974712;28;20288;-54
2021/11/27 12:01:04;;;;;;;6.13;3.60;;;;;;;;;;4966403;28;20750;-54
2021/11/27 12:03:33;;;;;;;5.53;3.10;;;;;;;;;;4950423;28;20265;-53
2021/11/27 12:06:05;;;;;;;4.33;2.40;;;;;;;;;;4950239;28;20392;-53
2021/11/27 12:08:51;;;;;;;6.23;2.50;;;;;;;;;;4949951;29;20289;-53
2021/11/27 12:11:36;;;;;;;3.93;2.10;;;;;;;;;;4971353;28;20280;-53
2021/11/27 12:14:03;;;;;;;4.20;2.33;;;;;;;;;;4974225;28;20284;-53
2021/11/27 12:16:29;;;;;;;5.00;2.00;;;;;;;;;;4966975;28;20027;-53
2021/11/27 12:19:06;;;;;;;4.37;2.50;;;;;;;;;;4955658;29;20309;-53
2021/11/27 12:21:33;;;;;;;4.80;2.30;;;;;;;;;;4954023;28;20299;-54
2021/11/27 12:24:00;;;;;;;5.07;2.40;;;;;;;;;;4949894;29;20327;-53
2021/11/27 12:26:27;;;;;;;5.57;2.20;;;;;;;;;;4952132;28;20289;-53
2021/11/27 12:28:55;;;;;;;7.40;3.10;;;;;;;;;;4969135;28;20327;-53
2021/11/27 12:31:40;;;;;;;7.17;3.40;;;;;;;;;;4963052;28;20305;-53
2021/11/27 12:34:08;;;;;;;7.70;3.60;;;;;;;;;;4954737;28;20261;-54
2021/11/27 12:36:40;;;;;;;7.70;3.90;;;;;;;;;;4955104;28;20023;-53
2021/11/27 12:39:12;;;;;;;7.70;3.70;;;;;;;;;;4954638;29;20613;-53
2021/11/27 12:41:40;;;;;;;14.33;4.53;;;;;;;;;;4963013;28;20285;-53
2021/11/27 12:44:12;;;;;;;5.57;3.10;;;;;;;;;;4968486;28;20360;-54
2021/11/27 12:46:39;;;;;;;6.07;2.40;;;;;;;;;;4949452;28;20276;-54
2021/11/27 12:49:06;;;;;;;5.17;2.40;;;;;;;;;;4949631;29;20428;-54
2021/11/27 12:51:32;;;;;;;4.03;2.07;;;;;;;;;;4949037;29;20262;-54
2021/11/27 12:54:03;;;;;;;4.10;2.27;;;;;;;;;;4950977;29;20249;-53
2021/11/27 12:56:47;;;;;;;4.47;1.80;;;;;;;;;;4956429;28;20677;-53
2021/11/27 12:59:21;;;;;;;2.27;1.27;;;;;;;;;;4974034;28;20261;-53
2021/11/27 13:01:48;;;;;;;3.20;2.00;;;;;;;;;;4973457;28;20284;-53
2021/11/27 13:04:18;;;;;;;6.20;2.53;;;;;;;;;;4972707;28;20390;-53
2021/11/27 13:06:45;;;;;;;7.07;3.27;;;;;;;;;;4971062;28;20269;-54
2021/11/27 13:09:12;;;;;;;8.43;4.07;;;;;;;;;;4968384;28;20309;-54
2021/11/27 13:11:44;;;;;;;7.00;3.97;;;;;;;;;;4959753;28;20265;-53
2021/11/27 13:14:23;;;;;;;5.75;3.47;;;;;;;;;;4948700;28;20308;-54
2021/11/27 13:16:50;;;;;;;4.90;2.60;;;;;;;;;;4952203;29;20024;-54
2021/11/27 13:19:30;;;;;;;11.63;3.77;;;;;;;;;;4954399;28;20795;-53
2021/11/27 13:22:06;;;;;;;6.27;3.83;;;;;;;;;;4954553;29;20265;-53
2021/11/27 13:24:36;;;;;;;7.83;3.57;;;;;;;;;;4969058;28;20261;-53
2021/11/27 13:27:06;;;;;;;7.57;3.67;;;;;;;;;;4973180;28;20273;-53
2021/11/27 13:29:33;;;;;;;7.93;2.83;;;;;;;;;;4969484;28;20316;-53
2021/11/27 13:32:02;;;;;;;6.70;4.00;;;;;;;;;;4967898;28;20830;-53
2021/11/27 13:34:28;;;;;;;7.90;4.50;;;;;;;;;;4967160;28;20715;-53
2021/11/27 13:36:57;;;;;;;6.83;3.50;;;;;;;;;;4968212;28;20261;-54
2021/11/27 13:39:28;;;;;;;8.80;2.80;;;;;;;;;;4971627;28;20787;-53
2021/11/27 13:42:06;;;;;;;3.67;1.97;;;;;;;;;;4973087;28;20283;-53
2021/11/27 13:44:39;;;;;;;4.70;2.70;;;;;;;;;;4973446;28;20343;-53
2021/11/27 13:47:07;;;;;;;5.50;2.07;;;;;;;;;;4961228;28;20273;-53
2021/11/27 13:49:35;;;;;;;6.60;2.30;;;;;;;;;;4954018;28;20257;-56
2021/11/27 13:52:03;;;;;;;5.37;1.63;;;;;;;;;;4948974;28;20346;-56
2021/11/27 13:54:31;;;;;;;3.17;1.60;;;;;;;;;;4962839;28;20624;-56
2021/11/27 13:56:58;;;;;;;4.57;1.70;;;;;;;;;;4968533;28;20688;-56
2021/11/27 13:59:26;;;;;;;6.73;1.77;;;;;;;;;;4967137;28;20261;-56
2021/11/27 14:02:00;;;;;;;2.77;1.40;;;;;;;;;;4971969;28;20819;-56
2021/11/27 14:04:27;;;;;;;2.37;1.30;;;;;;;;;;4972667;28;20261;-56
2021/11/27 14:06:58;;;;;;;2.83;1.67;;;;;;;;;;4972857;28;20350;-56
2021/11/27 14:09:42;;;;;;;4.97;1.60;;;;;;;;;;4973299;28;20311;-57
2021/11/27 14:12:28;;;;;;;6.70;1.73;;;;;;;;;;4960376;28;20281;-56
2021/11/27 14:14:56;;;;;;;2.30;1.40;;;;;;;;;;4948300;28;20046;-56
2021/11/27 14:17:23;;;;;;;2.00;1.40;;;;;;;;;;4962135;28;20023;-57
2021/11/27 14:19:49;;;;;;;2.67;1.40;;;;;;;;;;4967342;28;20062;-56
2021/11/27 14:22:16;;;;;;;3.03;1.70;;;;;;;;;;4967762;28;20031;-56
2021/11/27 14:24:44;;;;;;;4.77;2.30;;;;;;;;;;4971547;28;20038;-56
2021/11/27 14:27:11;;;;;;;10.37;2.63;;;;;;;;;;4959452;28;20111;-56
2021/11/27 14:29:38;;;;;;;11.70;3.57;;;;;;;;;;4953755;29;20070;-57
2021/11/27 14:32:20;;;;;;;5.93;2.63;;;;;;;;;;4953682;28;20031;-56
2021/11/27 14:34:49;;;;;;;7.00;3.13;;;;;;;;;;4952243;28;20051;-56
2021/11/27 14:37:16;;;;;;;7.53;3.90;;;;;;;;;;4962282;28;20039;-56
2021/11/27 14:39:42;;;;;;;6.47;3.90;;;;;;;;;;4971286;28;20073;-57
2021/11/27 14:42:12;;;;;;;10.93;5.40;;;;;;;;;;4970999;28;20086;-56
2021/11/27 14:44:39;;;;;;;10.73;4.93;;;;;;;;;;4967978;28;20035;-56
2021/11/27 14:47:06;;;;;;;8.57;4.53;;;;;;;;;;4976367;28;20059;-57
2021/11/27 14:49:37;;;;;;;10.27;3.57;;;;;;;;;;4976407;28;20027;-56
2021/11/27 14:52:06;;;;;;;9.80;3.80;;;;;;;;;;4965243;28;20037;-57